プンタアレナス空港の過去48時間の天気

プンタアレナス空港 (Punta Arenas)

現在時刻: 2/25 07:17 -03 (2/25 10:17 UTC) 以下の時間は現地時間です。

過去48時間のMETAR気象情報
時間 風向 風速(m/s) 視程 気温(℃) 湿度(%) 気圧(hPa) 天気現象
25 07:00 西南西 12 10km以上 10 66 1005
25 06:00 西 12 10km以上 9 76 1005
25 05:00 西 9 10km以上 9 76 1005
25 04:00 西南西 8 10km以上 8 66 1005
25 03:00 西南西 7 10km以上 8 66 1005
24 16:00 西 14 10km以上 12 50 998
24 15:00 西 10 10km以上 11 54 997
24 14:00 西 14 10km以上 12 54 996
24 13:00 西 13 10km以上 12 50 996
24 12:00 西 14 10km以上 11 58 996
24 11:00 西 15 10km以上 9 62 995
24 10:00 西 12 10km以上 9 66 995
24 09:00 西 14 10km以上 8 76 994
24 08:00 西 11 10km以上 8 71 994
24 07:00 西 11 10km以上 7 76 994 弱いしゅう雨
24 06:00 西 7 10km以上 7 76 994
24 05:00 西 11 10km以上 7 76 995
24 04:00 西 12 10km以上 8 66 995
24 03:00 西 9 10km以上 8 66 995
24 01:00 西 9 10km以上 7 76 995
24 00:00 西 7 10km以上 7 76 995
23 23:00 西 12 10km以上 8 66 995
23 22:00 西 16 10km以上 8 66 994
23 21:00 西 15 10km以上 8 71 994
23 20:00 西 11 10km以上 9 76 993 弱いしゅう雨
23 19:17 西 13 5000m 10 87 993 弱いしゅう雨
23 19:00 西北西 11 10km以上 13 62 992 弱いしゅう雨
23 18:00 北西 14 10km以上 13 62 992
23 17:00 西北西 14 10km以上 13 62 993
23 16:00 西北西 14 10km以上 14 63 994 弱いしゅう雨
23 15:00 西北西 13 10km以上 14 59 995 弱いしゅう雨
23 14:00 西北西 10 10km以上 13 58 996
23 13:00 北西 13 10km以上 12 62 997
23 12:00 北西 14 10km以上 12 62 997 弱いしゅう雨
23 11:00 西北西 8 10km以上 12 58 997
23 10:00 西北西 10 10km以上 11 67 998
23 09:00 西北西 8 10km以上 10 71 999
23 08:00 西 6 10km以上 10 71 1000 弱い雨
SCCI 251000Z 25024KT 9999 SCT040 BKN100 10/04 Q1005 NOSIG
SCCI 250900Z 26023KT 9999 SCT040 09/05 Q1005 NOSIG
SCCI 250800Z 26017KT 9999 SCT040 09/05 Q1005 NOSIG
SCCI 250700Z 24015KT 9999 SCT045 08/02 Q1005 NOSIG
SCCI 250600Z 25014KT 9999 SCT045 08/02 Q1005 NOSIG
SCCI 241900Z 26027G37KT 9999 FEW035 BKN046 12/02 Q0998 NOSIG
SCCI 241800Z 26020KT 9999 SCT040 SCT100 11/02 Q0997 NOSIG
SCCI 241700Z 26027KT 9999 SCT037 12/03 Q0996 NOSIG
SCCI 241600Z 26025KT 9999 FEW036 12/02 Q0996 NOSIG
SCCI 241500Z 26027KT 9999 SCT025 11/03 Q0996 NOSIG
SCCI 241400Z 26029G40KT 9999 FEW025 09/02 Q0995 NOSIG
SCCI 241300Z 26023KT 9999 SCT025 09/03 Q0995 NOSIG
SCCI 241200Z 26027G37KT 9999 SCT030 BKN080 08/04 Q0994 NOSIG
SCCI 241100Z 27021KT 9999 FEW023 BKN032 08/03 Q0994 NOSIG
SCCI 241000Z 26021G32KT 9999 -SHRA SCT025 BKN043 07/03 Q0994 NOSIG
SCCI 240900Z 27013KT 9999 SCT024 BKN035 07/03 Q0994 NOSIG
SCCI 240800Z 26022KT 9999 SCT035 SCT080 07/03 Q0995 NOSIG
SCCI 240700Z 27024KT 9999 SCT025 SCT080 08/02 Q0995 NOSIG
SCCI 240600Z 28018KT 9999 BKN030 SCT080 08/02 Q0995 NOSIG
SCCI 240400Z 28017KT 9999 BKN033 BKN080 07/03 Q0995 NOSIG
SCCI 240300Z 28014KT 250V310 9999 FEW030 SCT080 07/03 Q0995 NOSIG
SCCI 240200Z 26023KT 9999 SCT030 SCT080 08/02 Q0995 NOSIG
SCCI 240100Z 27031KT 9999 SCT030 BKN080 08/02 Q0994 NOSIG
SCCI 240000Z 26030KT 9999 SCT030 BKN120 08/03 Q0994 NOSIG
SCCI 232300Z 26022G32KT 9999 -SHRA BKN030 09/05 Q0993 NOSIG
SCCI 232217Z 27026G37KT 5000 -SHRA OVC030 10/08 Q0993 NOSIG
SCCI 232200Z 29021G31KT 9999 -SHRA BKN030 13/06 Q0992 NOSIG
SCCI 232100Z 31027G37KT 9999 BKN030 13/06 Q0992 NOSIG
SCCI 232000Z 30028G38KT 9999 BKN030 13/06 Q0993 NOSIG
SCCI 231900Z 29028G39KT 9999 -SHRA BKN030 14/07 Q0994 NOSIG
SCCI 231800Z 30025G37KT 9999 -SHRA BKN030 14/06 Q0995 NOSIG
SCCI 231700Z 30020G30KT 9999 FEW030 BKN040 13/05 Q0996 NOSIG
SCCI 231600Z 31025KT 9999 FEW030 BKN040 12/05 Q0997 NOSIG
SCCI 231500Z 31028KT 9999 -SHRA FEW030 BKN040 12/05 Q0997 NOSIG
SCCI 231400Z 30015G25KT 9999 FEW030 BKN040 12/04 Q0997 NOSIG
SCCI 231300Z 29020KT 9999 BKN040 11/05 Q0998 NOSIG
SCCI 231200Z 29015KT 9999 FEW030 BKN040 10/05 Q0999 NOSIG
SCCI 231100Z 26011KT 9999 -RA FEW030 OVC036 10/05 Q1000 NOSIG